createdAt,value
2023-02-11T00:01:37.468Z,103103.16
2023-02-11T00:04:07.284Z,103097.00
2023-02-11T00:06:36.327Z,103099.72
2023-02-11T00:09:04.653Z,103100.53
2023-02-11T00:11:32.682Z,103106.69
2023-02-11T00:14:02.209Z,103105.78
2023-02-11T00:16:31.407Z,103104.81
2023-02-11T00:19:00.687Z,103109.16
2023-02-11T00:21:30.267Z,103096.91
2023-02-11T00:23:59.638Z,103104.72
2023-02-11T00:26:30.014Z,103107.44
2023-02-11T00:28:58.042Z,103099.56
2023-02-11T00:31:27.259Z,103106.50
2023-02-11T00:33:55.424Z,103104.72
2023-02-11T00:36:24.610Z,103101.19
2023-02-11T00:38:54.773Z,103099.41
2023-02-11T00:41:23.262Z,103107.19
2023-02-11T00:43:51.309Z,103108.94
2023-02-11T00:46:19.113Z,103110.69
2023-02-11T00:48:46.830Z,103121.13
2023-02-11T00:51:14.506Z,103126.38
2023-02-11T00:53:42.212Z,103129.81
2023-02-11T00:56:11.732Z,103125.44
2023-02-11T00:58:39.497Z,103122.75
2023-02-11T01:01:07.806Z,103122.72
2023-02-11T01:03:35.896Z,103096.53
2023-02-11T01:06:03.594Z,103079.00
2023-02-11T01:08:31.284Z,103061.53
2023-02-11T01:11:00.246Z,103069.38
2023-02-11T01:13:30.128Z,103064.97
2023-02-11T01:15:58.378Z,103065.84
2023-02-11T01:18:26.619Z,103078.06
2023-02-11T01:20:54.543Z,103071.94
2023-02-11T01:23:22.605Z,103083.31
2023-02-11T01:25:50.584Z,103091.25
2023-02-11T01:28:19.452Z,103106.16
2023-02-11T01:30:48.878Z,103106.09
2023-02-11T01:33:16.582Z,103113.06
2023-02-11T01:35:45.011Z,103103.34
2023-02-11T01:38:16.828Z,103092.03
2023-02-11T01:40:48.417Z,103085.81
2023-02-11T01:43:16.145Z,103085.81
2023-02-11T01:46:04.368Z,103076.28
2023-02-11T01:48:35.561Z,103081.53
2023-02-11T01:51:06.562Z,103093.75
2023-02-11T01:53:52.648Z,103088.50
2023-02-11T01:56:39.387Z,103085.81
2023-02-11T01:59:11.460Z,103071.09
2023-02-11T02:01:41.715Z,103069.31
2023-02-11T02:04:11.488Z,103059.66
2023-02-11T02:06:43.188Z,103064.94
2023-02-11T02:09:14.258Z,103060.53
2023-02-11T02:11:42.063Z,103058.75
2023-02-11T02:14:09.764Z,103062.31
2023-02-11T02:16:38.207Z,103064.97
2023-02-11T02:19:26.093Z,103056.13
2023-02-11T02:22:40.954Z,103054.34
2023-02-11T02:25:29.838Z,103048.19
2023-02-11T02:28:05.064Z,103050.06
2023-02-11T02:31:05.568Z,103056.97
2023-02-11T02:33:51.390Z,103055.25
2023-02-11T02:36:24.271Z,103051.69
2023-02-11T02:38:55.221Z,103051.72
2023-02-11T02:41:25.007Z,103046.47
2023-02-11T02:43:53.048Z,103039.50
2023-02-11T02:46:22.667Z,103046.53
2023-02-11T02:48:52.733Z,103049.88
2023-02-11T02:51:38.860Z,103048.09
2023-02-11T02:54:23.263Z,103028.91
2023-02-11T02:56:56.330Z,103028.91
2023-02-11T02:59:32.018Z,103033.34
2023-02-11T03:02:06.430Z,103046.38
2023-02-11T03:04:39.098Z,103040.22
2023-02-11T03:07:11.357Z,103026.22
2023-02-11T03:09:42.658Z,103026.16
2023-02-11T03:12:11.866Z,103032.25
2023-02-11T03:14:40.160Z,103026.16
2023-02-11T03:17:09.682Z,103020.06
2023-02-11T03:19:39.983Z,103017.47
2023-02-11T03:22:13.180Z,103017.44
2023-02-11T03:24:41.688Z,103014.00
2023-02-11T03:27:13.384Z,103006.16
2023-02-11T03:29:44.334Z,103013.13
2023-02-11T03:32:17.064Z,103027.09
2023-02-11T03:34:50.000Z,103025.38
2023-02-11T03:37:20.200Z,103029.75
2023-02-11T03:39:52.666Z,103030.72
2023-02-11T03:42:20.808Z,103029.91
2023-02-11T03:44:51.555Z,103037.75
2023-02-11T03:47:22.813Z,103033.41
2023-02-11T03:49:53.129Z,103043.00
2023-02-11T03:52:21.596Z,103043.84
2023-02-11T03:54:51.184Z,103029.00
2023-02-11T03:57:18.873Z,103038.59
2023-02-11T03:59:54.638Z,103044.75
2023-02-11T04:02:22.996Z,103048.25
2023-02-11T04:04:52.091Z,103037.84
2023-02-11T04:07:19.766Z,103046.53
2023-02-11T04:09:47.505Z,103051.78
2023-02-11T04:12:15.156Z,103062.25
2023-02-11T04:14:42.883Z,103053.44
2023-02-11T04:17:11.045Z,103041.25
2023-02-11T04:19:38.870Z,103037.75
2023-02-11T04:22:08.208Z,103041.38
2023-02-11T04:24:35.983Z,103042.28
2023-02-11T04:27:03.674Z,103037.00
2023-02-11T04:29:32.107Z,103045.72
2023-02-11T04:31:59.800Z,103044.81
2023-02-11T04:34:27.776Z,103049.16
2023-02-11T04:36:55.453Z,103037.75
2023-02-11T04:39:24.514Z,103043.00
2023-02-11T04:41:52.247Z,103048.34
2023-02-11T04:44:19.917Z,103047.53
2023-02-11T04:46:47.616Z,103047.53
2023-02-11T04:49:16.156Z,103054.59
2023-02-11T04:51:46.441Z,103050.22
2023-02-11T04:54:15.534Z,103055.50
2023-02-11T04:56:44.699Z,103052.06
2023-02-11T04:59:13.330Z,103044.16
2023-02-11T05:01:41.187Z,103045.09
2023-02-11T05:04:09.085Z,103038.97
2023-02-11T05:06:36.851Z,103049.53
2023-02-11T05:09:04.687Z,103047.75
2023-02-11T05:11:32.511Z,103046.06
2023-02-11T05:14:01.611Z,103039.03
2023-02-11T05:16:29.425Z,103051.25
2023-02-11T05:18:57.060Z,103041.66
2023-02-11T05:21:24.764Z,103053.78
2023-02-11T05:23:52.747Z,103055.50
2023-02-11T05:26:22.551Z,103048.47
2023-02-11T05:28:50.628Z,103051.09
2023-02-11T05:31:19.763Z,103058.97
2023-02-11T05:33:47.495Z,103051.16
2023-02-11T05:36:16.009Z,103056.41
2023-02-11T05:38:43.859Z,103056.41
2023-02-11T05:41:12.338Z,103046.69
2023-02-11T05:43:40.175Z,103054.59
2023-02-11T05:46:07.889Z,103055.44
2023-02-11T05:48:36.943Z,103051.03
2023-02-11T05:51:05.003Z,103041.38
2023-02-11T05:53:32.645Z,103041.38
2023-02-11T05:56:00.386Z,103037.09
2023-02-11T05:58:28.409Z,103040.59
2023-02-11T06:00:56.182Z,103041.44
2023-02-11T06:03:24.017Z,103046.63
2023-02-11T06:05:53.231Z,103051.84
2023-02-11T06:08:21.007Z,103057.16
2023-02-11T06:10:48.740Z,103051.91
2023-02-11T06:13:18.682Z,103046.63
2023-02-11T06:15:46.534Z,103043.09
2023-02-11T06:18:14.176Z,103048.34
2023-02-11T06:20:41.947Z,103045.72
2023-02-11T06:23:11.129Z,103054.41
2023-02-11T06:25:38.841Z,103050.88
2023-02-11T06:28:06.585Z,103057.84
2023-02-11T06:30:34.329Z,103049.97
2023-02-11T06:33:02.024Z,103052.59
2023-02-11T06:35:30.482Z,103054.38
2023-02-11T06:37:58.130Z,103059.59
2023-02-11T06:40:27.251Z,103057.84
2023-02-11T06:42:54.967Z,103055.25
2023-02-11T06:45:22.681Z,103066.53
2023-02-11T06:47:52.442Z,103055.16
2023-02-11T06:50:20.260Z,103062.13
2023-02-11T06:52:48.109Z,103060.31
2023-02-11T06:55:16.001Z,103055.06
2023-02-11T06:57:45.093Z,103057.69
2023-02-11T07:00:14.306Z,103053.28
2023-02-11T07:02:41.978Z,103058.53
2023-02-11T07:05:10.125Z,103055.00
2023-02-11T07:07:38.109Z,103050.59
2023-02-11T07:10:06.519Z,103053.22
2023-02-11T07:12:34.215Z,103058.44
2023-02-11T07:15:03.252Z,103046.22
2023-02-11T07:17:30.982Z,103048.75
2023-02-11T07:19:58.743Z,103046.97
2023-02-11T07:22:26.553Z,103049.59
2023-02-11T07:24:54.218Z,103051.31
2023-02-11T07:27:21.915Z,103052.28
2023-02-11T07:29:49.638Z,103055.75
2023-02-11T07:32:18.842Z,103058.34
2023-02-11T07:34:48.131Z,103064.50
2023-02-11T07:37:15.919Z,103054.84
2023-02-11T07:39:43.662Z,103057.53
2023-02-11T07:42:11.379Z,103061.81
2023-02-11T07:44:39.071Z,103071.47
2023-02-11T07:47:06.841Z,103073.19
2023-02-11T07:49:36.233Z,103078.38
2023-02-11T07:52:04.054Z,103074.81
2023-02-11T07:54:31.760Z,103071.38
2023-02-11T07:56:59.698Z,103072.22
2023-02-11T07:59:27.514Z,103077.47
2023-02-11T08:01:55.245Z,103071.31
2023-02-11T08:04:23.104Z,103080.00
2023-02-11T08:06:52.859Z,103077.47
2023-02-11T08:09:20.571Z,103088.78
2023-02-11T08:11:48.182Z,103084.38
2023-02-11T08:14:16.047Z,103089.53
2023-02-11T08:16:43.850Z,103082.63
2023-02-11T08:19:13.780Z,103083.44
2023-02-11T08:21:42.048Z,103081.72
2023-02-11T08:24:11.335Z,103091.41
2023-02-11T08:26:39.217Z,103099.09
2023-02-11T08:29:09.677Z,103093.88
2023-02-11T08:31:40.003Z,103083.44
2023-02-11T08:34:07.917Z,103102.63
2023-02-11T08:36:36.978Z,103099.09
2023-02-11T08:39:22.480Z,103103.44
2023-02-11T08:41:53.138Z,103088.78
2023-02-11T08:44:21.724Z,103104.09
2023-02-11T08:46:50.168Z,103107.63
2023-02-11T08:49:17.886Z,103101.59
2023-02-11T08:51:46.091Z,103108.47
2023-02-11T08:54:14.288Z,103109.31
2023-02-11T08:56:42.300Z,103117.28
2023-02-11T08:59:14.104Z,103127.72
2023-02-11T09:01:42.023Z,103122.47
2023-02-11T09:04:10.684Z,103118.94
2023-02-11T09:06:38.348Z,103114.47
2023-02-11T09:09:06.538Z,103124.03
2023-02-11T09:11:36.074Z,103125.75
2023-02-11T09:14:05.021Z,103125.63
2023-02-11T09:16:36.443Z,103132.53
2023-02-11T09:19:06.636Z,103128.91
2023-02-11T09:21:34.706Z,103128.00
2023-02-11T09:24:02.401Z,103141.06
2023-02-11T09:26:31.865Z,103139.25
2023-02-11T09:29:00.016Z,103142.69
2023-02-11T09:31:29.296Z,103146.16
2023-02-11T09:34:00.198Z,103160.00
2023-02-11T09:36:29.749Z,103159.97
2023-02-11T09:38:59.794Z,103167.78
2023-02-11T09:41:37.028Z,103172.13
2023-02-11T09:44:07.925Z,103172.91
2023-02-11T09:46:39.312Z,103172.06
2023-02-11T09:49:08.871Z,103174.53
2023-02-11T09:51:41.815Z,103171.84
2023-02-11T09:54:16.718Z,103180.59
2023-02-11T09:56:44.470Z,103191.09
2023-02-11T09:59:15.385Z,103196.34
2023-02-11T10:01:48.574Z,103203.34
2023-02-11T10:04:23.932Z,103196.25
2023-02-11T10:06:54.335Z,103194.38
2023-02-11T10:09:31.443Z,103197.84
2023-02-11T10:12:09.525Z,103206.50
2023-02-11T10:14:54.863Z,103211.69
2023-02-11T10:17:27.875Z,103215.22
2023-02-11T10:20:07.293Z,103221.31
2023-02-11T10:22:38.024Z,103220.41
2023-02-11T10:25:18.887Z,103231.66
2023-02-11T10:27:46.606Z,103230.66
2023-02-11T10:32:31.354Z,103235.81
2023-02-11T10:35:03.279Z,103227.03
2023-02-11T10:37:31.245Z,103233.06
2023-02-11T10:39:58.962Z,103235.63
2023-02-11T10:42:27.092Z,103237.28
2023-02-11T10:44:59.440Z,103229.28
2023-02-11T10:47:32.834Z,103223.03
2023-02-11T10:50:03.685Z,103226.47
2023-02-11T10:52:32.322Z,103221.94
2023-02-11T10:55:02.772Z,103226.22
2023-02-11T10:57:34.633Z,103217.34
2023-02-11T11:00:21.773Z,103226.78
2023-02-11T11:02:57.430Z,103218.81
2023-02-11T11:05:30.903Z,103215.16
2023-02-11T11:08:00.277Z,103222.97
2023-02-11T11:10:32.099Z,103220.28
2023-02-11T11:12:59.782Z,103223.72
2023-02-11T11:15:29.008Z,103220.22
2023-02-11T11:18:22.098Z,103230.75
2023-02-11T11:20:57.629Z,103223.78
2023-02-11T11:23:25.818Z,103228.94
2023-02-11T11:26:07.564Z,103232.38
2023-02-11T11:28:39.595Z,103225.38
2023-02-11T11:31:13.895Z,103229.66
2023-02-11T11:33:44.498Z,103234.13
2023-02-11T11:36:14.337Z,103228.69
2023-02-11T11:38:45.753Z,103230.28
2023-02-11T11:41:18.224Z,103224.88
2023-02-11T11:43:57.032Z,103218.63
2023-02-11T11:46:26.604Z,103231.69
2023-02-11T11:48:57.909Z,103233.31
2023-02-11T11:51:25.999Z,103229.75
2023-02-11T11:53:57.572Z,103217.44
2023-02-11T11:56:27.928Z,103233.81
2023-02-11T11:58:55.663Z,103228.59
2023-02-11T12:01:33.690Z,103225.81
2023-02-11T12:04:25.239Z,103225.69
2023-02-11T12:07:03.998Z,103228.13
2023-02-11T12:09:37.790Z,103224.50
2023-02-11T12:12:24.163Z,103223.59
2023-02-11T12:14:57.251Z,103227.00
2023-02-11T12:17:38.570Z,103233.88
2023-02-11T12:20:18.082Z,103226.69
2023-02-11T12:22:52.611Z,103224.84
2023-02-11T12:25:27.415Z,103218.56
2023-02-11T12:28:02.741Z,103214.94
2023-02-11T12:30:41.201Z,103224.28
2023-02-11T12:33:14.527Z,103224.22
2023-02-11T12:35:49.275Z,103216.13
2023-02-11T12:38:37.499Z,103217.91
2023-02-11T12:41:15.727Z,103215.94
2023-02-11T12:43:43.364Z,103214.94
2023-02-11T12:46:35.731Z,103216.56
2023-02-11T12:49:20.515Z,103214.72
2023-02-11T12:52:04.102Z,103225.19
2023-02-11T12:54:34.148Z,103225.19
2023-02-11T12:57:04.020Z,103219.91
2023-02-11T12:59:41.554Z,103211.88
2023-02-11T13:02:17.946Z,103220.47
2023-02-11T13:04:49.515Z,103203.66
2023-02-11T13:07:22.738Z,103212.44
2023-02-11T13:09:52.922Z,103216.63
2023-02-11T13:12:40.337Z,103224.50
2023-02-11T13:15:11.064Z,103219.22
2023-02-11T13:17:42.184Z,103213.81
2023-02-11T13:20:16.805Z,103205.78
2023-02-11T13:22:49.769Z,103203.94
2023-02-11T13:25:23.032Z,103205.72
2023-02-11T13:27:58.679Z,103196.88
2023-02-11T13:30:30.725Z,103194.31
2023-02-11T13:33:06.882Z,103199.59
2023-02-11T13:35:35.614Z,103197.88
2023-02-11T13:38:06.361Z,103197.00
2023-02-11T13:40:35.906Z,103207.38
2023-02-11T13:43:04.963Z,103202.00
2023-02-11T13:45:35.811Z,103213.34
2023-02-11T13:48:06.024Z,103209.78
2023-02-11T13:50:37.766Z,103210.66
2023-02-11T13:53:07.953Z,103205.38
2023-02-11T13:55:36.345Z,103207.16
2023-02-11T13:58:19.557Z,103207.94
2023-02-11T14:00:49.818Z,103199.97
2023-02-11T14:03:46.859Z,103212.28
2023-02-11T14:06:35.088Z,103205.28
2023-02-11T14:09:34.541Z,103206.97
2023-02-11T14:12:31.954Z,103212.19
2023-02-11T14:15:15.986Z,103206.78
2023-02-11T14:17:43.634Z,103209.31
2023-02-11T14:20:33.782Z,103209.31
2023-02-11T14:23:01.499Z,103211.91
2023-02-11T14:25:30.564Z,103214.53
2023-02-11T14:28:04.832Z,103223.19
2023-02-11T14:30:55.967Z,103213.53
2023-02-11T14:33:47.724Z,103217.91
2023-02-11T14:36:24.272Z,103219.63
2023-02-11T14:39:00.154Z,103229.28
2023-02-11T14:41:31.515Z,103230.94
2023-02-11T14:44:01.111Z,103231.81
2023-02-11T14:46:32.826Z,103233.53
2023-02-11T14:49:03.159Z,103243.16
2023-02-11T14:51:32.459Z,103233.53
2023-02-11T14:54:04.661Z,103234.28
2023-02-11T14:56:34.312Z,103236.06
2023-02-11T14:59:02.907Z,103238.69
2023-02-11T15:01:34.027Z,103230.09
2023-02-11T15:04:02.694Z,103228.38
2023-02-11T15:06:32.701Z,103224.91
2023-02-11T15:09:03.564Z,103227.59
2023-02-11T15:11:34.680Z,103223.19
2023-02-11T15:14:09.289Z,103225.78
2023-02-11T15:16:41.947Z,103226.66
2023-02-11T15:19:20.885Z,103230.16
2023-02-11T15:21:48.711Z,103231.06
2023-02-11T15:24:25.478Z,103235.47
2023-02-11T15:27:02.531Z,103229.31
2023-02-11T15:29:36.558Z,103232.03
2023-02-11T15:32:08.813Z,103232.03
2023-02-11T15:34:37.230Z,103235.59
2023-02-11T15:37:05.310Z,103233.88
2023-02-11T15:39:36.523Z,103233.94
2023-02-11T15:42:23.856Z,103242.72
2023-02-11T15:45:09.782Z,103247.25
2023-02-11T15:47:37.594Z,103235.81
2023-02-11T15:50:05.872Z,103257.88
2023-02-11T15:52:34.682Z,103255.22
2023-02-11T15:55:03.689Z,103244.81
2023-02-11T15:57:32.752Z,103250.88
2023-02-11T16:00:04.390Z,103242.97
2023-02-11T16:02:33.962Z,103248.38
2023-02-11T16:05:08.467Z,103251.91
2023-02-11T16:07:45.097Z,103258.09
2023-02-11T16:10:25.275Z,103264.31
2023-02-11T16:12:56.770Z,103268.84
2023-02-11T16:15:43.124Z,103261.00
2023-02-11T16:18:42.435Z,103264.53
2023-02-11T16:21:16.748Z,103261.97
2023-02-11T16:23:49.706Z,103270.72
2023-02-11T16:26:23.832Z,103266.38
2023-02-11T16:28:52.977Z,103274.28
2023-02-11T16:31:21.073Z,103272.63
2023-02-11T16:33:48.868Z,103283.19
2023-02-11T16:36:17.996Z,103291.13
2023-02-11T16:38:45.614Z,103300.00
2023-02-11T16:41:13.297Z,103300.13
2023-02-11T16:43:40.971Z,103298.56
2023-02-11T16:46:14.675Z,103308.19
2023-02-11T16:48:42.379Z,103312.66
2023-02-11T16:51:12.306Z,103315.38
2023-02-11T16:53:39.967Z,103311.88
2023-02-11T16:56:08.035Z,103315.38
2023-02-11T16:58:35.694Z,103317.16
2023-02-11T17:01:03.459Z,103325.13
2023-02-11T17:03:37.438Z,103331.28
2023-02-11T17:06:05.856Z,103326.06
2023-02-11T17:08:33.814Z,103332.19
2023-02-11T17:11:01.441Z,103335.69
2023-02-11T17:13:29.132Z,103331.34
2023-02-11T17:15:56.784Z,103330.63
2023-02-11T17:18:24.416Z,103334.13
2023-02-11T17:20:53.689Z,103321.13
2023-02-11T17:23:21.362Z,103342.03
2023-02-11T17:25:56.302Z,103338.47
2023-02-11T17:28:24.051Z,103346.34
2023-02-11T17:30:51.822Z,103343.69
2023-02-11T17:33:19.976Z,103343.69
2023-02-11T17:35:47.694Z,103344.72
2023-02-11T17:38:16.827Z,103351.72
2023-02-11T17:40:44.507Z,103362.28
2023-02-11T17:43:12.288Z,103364.13
2023-02-11T17:45:45.888Z,103367.63
2023-02-11T17:48:13.666Z,103354.50
2023-02-11T17:50:41.417Z,103347.56
2023-02-11T17:53:09.224Z,103358.94
2023-02-11T17:55:38.874Z,103356.28
2023-02-11T17:58:06.834Z,103358.13
2023-02-11T18:00:34.688Z,103359.06
2023-02-11T18:03:03.024Z,103366.06
2023-02-11T18:05:35.114Z,103366.91
2023-02-11T18:08:02.928Z,103362.63
2023-02-11T18:10:30.718Z,103365.25
2023-02-11T18:12:59.912Z,103368.75
2023-02-11T18:15:27.736Z,103366.16
2023-02-11T18:17:56.400Z,103356.53
2023-02-11T18:20:24.012Z,103359.16
2023-02-11T18:22:51.735Z,103360.97
2023-02-11T18:25:19.749Z,103363.63
2023-02-11T18:27:50.167Z,103366.31
2023-02-11T18:30:20.606Z,103371.66
2023-02-11T18:32:48.422Z,103368.16
2023-02-11T18:35:16.654Z,103366.44
2023-02-11T18:37:44.396Z,103384.13
2023-02-11T18:40:13.175Z,103377.22
2023-02-11T18:42:41.120Z,103385.97
2023-02-11T18:45:10.731Z,103396.38
2023-02-11T18:47:40.236Z,103393.75
2023-02-11T18:50:13.735Z,103394.59
2023-02-11T18:52:41.506Z,103399.00
2023-02-11T18:55:10.115Z,103406.03
2023-02-11T18:57:37.997Z,103406.94
2023-02-11T19:00:06.561Z,103414.00
2023-02-11T19:02:35.555Z,103413.19
2023-02-11T19:05:05.891Z,103403.06
2023-02-11T19:07:33.709Z,103426.41
2023-02-11T19:10:01.439Z,103415.00
2023-02-11T19:12:29.140Z,103426.53
2023-02-11T19:14:59.080Z,103428.28
2023-02-11T19:17:26.968Z,103430.03
2023-02-11T19:19:54.721Z,103439.78
2023-02-11T19:22:23.831Z,103452.06
2023-02-11T19:24:51.687Z,103444.16
2023-02-11T19:27:19.446Z,103454.69
2023-02-11T19:29:47.193Z,103449.44
2023-02-11T19:32:15.730Z,103446.00
2023-02-11T19:34:43.584Z,103450.34
2023-02-11T19:37:13.265Z,103448.63
2023-02-11T19:39:42.391Z,103460.09
2023-02-11T19:42:10.576Z,103468.00
2023-02-11T19:44:38.390Z,103467.16
2023-02-11T19:47:06.839Z,103468.00
2023-02-11T19:49:34.665Z,103479.47
2023-02-11T19:52:02.362Z,103478.56
2023-02-11T19:54:30.151Z,103482.09
2023-02-11T19:56:59.475Z,103483.84
2023-02-11T19:59:27.531Z,103486.47
2023-02-11T20:01:55.302Z,103483.72
2023-02-11T20:04:25.030Z,103494.28
2023-02-11T20:06:52.774Z,103501.28
2023-02-11T20:09:21.685Z,103499.53
2023-02-11T20:11:50.191Z,103496.91
2023-02-11T20:14:19.339Z,103489.91
2023-02-11T20:16:49.742Z,103490.81
2023-02-11T20:19:19.229Z,103489.91
2023-02-11T20:21:47.978Z,103496.06
2023-02-11T20:24:16.035Z,103496.06
2023-02-11T20:26:45.266Z,103496.09
2023-02-11T20:29:13.052Z,103504.00
2023-02-11T20:31:42.791Z,103505.75
2023-02-11T20:34:11.125Z,103498.75
2023-02-11T20:36:40.255Z,103505.78
2023-02-11T20:39:09.106Z,103503.16
2023-02-11T20:41:39.937Z,103502.28
2023-02-11T20:44:09.734Z,103512.84
2023-02-11T20:46:40.067Z,103502.38
2023-02-11T20:49:11.325Z,103506.84
2023-02-11T20:51:39.386Z,103508.63
2023-02-11T20:54:07.535Z,103514.84
2023-02-11T20:56:37.178Z,103513.13
2023-02-11T20:59:05.973Z,103516.72
2023-02-11T21:01:35.382Z,103514.00
2023-02-11T21:04:04.643Z,103517.56
2023-02-11T21:06:35.938Z,103507.88
2023-02-11T21:09:03.750Z,103513.13
2023-02-11T21:11:31.827Z,103513.13
2023-02-11T21:13:59.586Z,103514.13
2023-02-11T21:16:27.813Z,103516.59
2023-02-11T21:18:56.933Z,103521.00
2023-02-11T21:21:24.992Z,103518.31
2023-02-11T21:23:55.701Z,103519.22
2023-02-11T21:26:23.633Z,103524.53
2023-02-11T21:28:51.959Z,103517.50
2023-02-11T21:31:21.600Z,103518.41
2023-02-11T21:33:49.848Z,103518.47
2023-02-11T21:36:17.932Z,103521.97
2023-02-11T21:38:45.856Z,103515.09
2023-02-11T21:41:15.652Z,103522.94
2023-02-11T21:43:45.665Z,103523.00
2023-02-11T21:46:15.529Z,103522.22
2023-02-11T21:48:43.667Z,103532.75
2023-02-11T21:51:15.103Z,103531.03
2023-02-11T21:53:42.825Z,103524.94
2023-02-11T21:56:11.845Z,103528.50
2023-02-11T21:58:41.072Z,103527.66
2023-02-11T22:01:13.181Z,103529.59
2023-02-11T22:03:41.004Z,103531.38
2023-02-11T22:06:10.212Z,103534.00
2023-02-11T22:08:38.086Z,103534.88
2023-02-11T22:11:06.987Z,103541.06
2023-02-11T22:13:35.344Z,103540.31
2023-02-11T22:16:06.015Z,103535.03
2023-02-11T22:18:33.917Z,103532.44
2023-02-11T22:21:02.566Z,103535.13
2023-02-11T22:23:30.848Z,103536.00
2023-02-11T22:25:59.201Z,103545.69
2023-02-11T22:28:27.060Z,103543.94
2023-02-11T22:30:55.883Z,103544.88
2023-02-11T22:33:25.460Z,103559.75
2023-02-11T22:35:59.624Z,103565.88
2023-02-11T22:38:27.591Z,103566.84
2023-02-11T22:40:55.277Z,103574.69
2023-02-11T22:43:22.933Z,103572.13
2023-02-11T22:45:50.988Z,103568.66
2023-02-11T22:48:22.096Z,103572.13
2023-02-11T22:50:52.186Z,103574.75
2023-02-11T22:53:19.945Z,103567.81
2023-02-11T22:55:47.630Z,103576.56
2023-02-11T22:58:15.356Z,103574.91
2023-02-11T23:00:43.379Z,103579.28
2023-02-11T23:03:11.821Z,103572.38
2023-02-11T23:05:40.268Z,103573.34
2023-02-11T23:08:10.508Z,103579.41
2023-02-11T23:10:39.530Z,103586.50
2023-02-11T23:13:08.266Z,103583.91
2023-02-11T23:15:40.251Z,103590.94
2023-02-11T23:18:08.263Z,103595.34
2023-02-11T23:20:36.312Z,103597.16
2023-02-11T23:23:04.110Z,103593.66
2023-02-11T23:25:33.654Z,103596.41
2023-02-11T23:28:01.693Z,103609.47
2023-02-11T23:30:29.877Z,103606.03
2023-02-11T23:32:57.757Z,103604.25
2023-02-11T23:35:25.432Z,103604.25
2023-02-11T23:37:54.009Z,103604.31
2023-02-11T23:40:22.427Z,103604.31
2023-02-11T23:42:51.565Z,103603.47
2023-02-11T23:45:19.426Z,103601.69
2023-02-11T23:47:47.783Z,103598.19
2023-02-11T23:50:15.699Z,103599.06
2023-02-11T23:52:43.316Z,103595.50
2023-02-11T23:55:11.100Z,103598.13
2023-02-11T23:57:38.724Z,103596.41
